METAR Data
IDs: Format: Raw Decoded Include TAF

Data at: 0948 UTC 18 Jan 2022

PAUN 180856Z AUTO 15003KT 9SM -SN OVC027 M16/M18 A3012 RMK AO2 SLP203 P0000 60000 T11561178 411281161 50003 FZRANO